Time;durP1;ratioP1;P1;durP2;ratioP2;P2;SDS_P1;SDS_P2;PMS_P1;PMS_P2;Temp;Humidity;BMP_temperature;BMP_pressure;BME280_temperature;BME280_humidity;BME280_pressure;Samples;Min_cycle;Max_cycle;Signal;HPM_P1;HPM_P2
2022/07/11 00:02:03;;;;;;;25.23;2.97;;;14.30;22.80;;;;;;5075299;28;21007;-70
2022/07/11 00:04:30;;;;;;;24.87;3.37;;;14.20;23.00;;;;;;5061535;28;20485;-69
2022/07/11 00:06:57;;;;;;;26.57;3.07;;;14.30;22.80;;;;;;5065353;28;20469;-71
2022/07/11 00:09:24;;;;;;;27.53;3.67;;;14.20;22.90;;;;;;5066260;28;20485;-70
2022/07/11 00:11:51;;;;;;;25.53;3.00;;;14.30;22.90;;;;;;5066680;28;20465;-70
2022/07/11 00:14:19;;;;;;;28.40;3.27;;;14.20;23.00;;;;;;5065927;28;20985;-70
2022/07/11 00:16:46;;;;;;;26.23;3.40;;;14.20;23.00;;;;;;5066713;28;20457;-70
2022/07/11 00:19:14;;;;;;;26.13;3.33;;;14.20;23.20;;;;;;5056234;28;20472;-71
2022/07/11 00:21:41;;;;;;;25.00;2.90;;;14.20;23.20;;;;;;5076440;28;20741;-72
2022/07/11 00:24:08;;;;;;;26.70;3.23;;;14.20;23.20;;;;;;5066234;28;20480;-70
2022/07/11 00:26:35;;;;;;;28.57;3.57;;;14.20;23.10;;;;;;5066892;28;20556;-71
2022/07/11 00:29:02;;;;;;;26.53;3.47;;;14.10;23.30;;;;;;5065160;28;20489;-71
2022/07/11 00:31:28;;;;;;;29.70;3.43;;;14.10;23.40;;;;;;5066222;28;20858;-70
2022/07/11 00:33:55;;;;;;;27.60;3.20;;;14.10;23.30;;;;;;5061405;28;20485;-71
2022/07/11 00:36:24;;;;;;;26.97;3.93;;;14.00;23.30;;;;;;5061385;28;20818;-71
2022/07/11 00:38:51;;;;;;;29.37;4.27;;;14.00;23.80;;;;;;5058098;28;20519;-70
2022/07/11 00:41:18;;;;;;;25.50;3.40;;;14.00;23.50;;;;;;5069274;28;20968;-70
2022/07/11 00:43:52;;;;;;;29.17;3.40;;;14.00;23.90;;;;;;5070447;28;20480;-71
2022/07/11 00:46:19;;;;;;;27.20;4.47;;;13.90;23.80;;;;;;5066395;28;21056;-70
2022/07/11 00:48:46;;;;;;;26.00;3.47;;;13.90;23.90;;;;;;5070480;28;20461;-72
2022/07/11 00:51:13;;;;;;;27.63;3.60;;;13.80;24.00;;;;;;5067780;28;20846;-70
2022/07/11 00:53:42;;;;;;;28.30;3.83;;;13.70;24.50;;;;;;5070539;28;20525;-69
2022/07/11 00:56:10;;;;;;;25.27;3.13;;;13.70;24.60;;;;;;5070134;28;20461;-70
2022/07/11 00:58:37;;;;;;;24.67;3.57;;;13.70;24.50;;;;;;5068165;28;20960;-69
2022/07/11 01:01:05;;;;;;;27.27;3.60;;;13.70;24.60;;;;;;5067204;28;20481;-70
2022/07/11 01:03:34;;;;;;;25.33;3.40;;;13.60;25.00;;;;;;5067061;28;20481;-70
2022/07/11 01:06:01;;;;;;;24.87;3.80;;;13.50;25.20;;;;;;5069947;28;20587;-71
2022/07/11 01:08:31;;;;;;;24.70;3.40;;;13.50;25.60;;;;;;5069280;28;20463;-70
2022/07/11 01:11:01;;;;;;;26.60;3.60;;;13.50;25.60;;;;;;5069287;28;20480;-72
2022/07/11 01:13:27;;;;;;;27.13;3.77;;;13.40;26.00;;;;;;5068330;28;20461;-70
2022/07/11 01:16:07;;;;;;;26.40;3.77;;;13.40;26.00;;;;;;5069861;28;20465;-71
2022/07/11 01:18:34;;;;;;;24.70;3.20;;;13.30;26.00;;;;;;5075397;28;21018;-70
2022/07/11 01:21:02;;;;;;;25.33;3.70;;;13.40;25.90;;;;;;5071293;28;20464;-70
2022/07/11 01:23:30;;;;;;;24.37;3.60;;;13.30;25.80;;;;;;5069709;28;20453;-70
2022/07/11 01:25:56;;;;;;;25.37;3.40;;;13.30;26.00;;;;;;5061892;28;20468;-71
2022/07/11 01:28:23;;;;;;;25.40;3.40;;;13.30;26.60;;;;;;5058268;28;20454;-70
2022/07/11 01:30:50;;;;;;;25.67;3.67;;;13.30;27.00;;;;;;5059626;28;20475;-70
2022/07/11 01:33:17;;;;;;;24.87;3.77;;;13.30;27.10;;;;;;5067965;28;20469;-70
2022/07/11 01:35:43;;;;;;;23.17;3.17;;;13.20;27.50;;;;;;5069536;28;20460;-70
2022/07/11 01:38:10;;;;;;;25.10;3.50;;;13.20;27.30;;;;;;5068507;28;20468;-71
2022/07/11 01:40:38;;;;;;;26.77;3.57;;;13.20;27.30;;;;;;5056664;28;20458;-70
2022/07/11 01:43:05;;;;;;;24.83;3.57;;;13.20;27.40;;;;;;5066687;28;20461;-70
2022/07/11 01:45:32;;;;;;;23.90;2.93;;;13.20;27.10;;;;;;5060200;28;20473;-70
2022/07/11 01:47:59;;;;;;;23.87;3.43;;;13.10;27.60;;;;;;5067780;28;20464;-70
2022/07/11 01:50:25;;;;;;;25.20;3.33;;;13.10;27.90;;;;;;5068819;28;20842;-70
2022/07/11 01:52:52;;;;;;;26.90;3.83;;;13.10;28.00;;;;;;5067359;28;20461;-71
2022/07/11 01:55:19;;;;;;;24.67;3.83;;;13.00;28.30;;;;;;5066392;28;20503;-71
2022/07/11 01:57:47;;;;;;;23.10;3.40;;;13.00;28.60;;;;;;5063198;28;20836;-71
2022/07/11 02:00:14;;;;;;;25.30;3.60;;;13.10;28.60;;;;;;5068680;28;20468;-70
2022/07/11 02:02:41;;;;;;;23.93;3.53;;;13.10;28.60;;;;;;5078876;28;20988;-70
2022/07/11 02:05:08;;;;;;;26.17;4.60;;;13.10;28.60;;;;;;5063822;28;20900;-71
2022/07/11 02:10:19;;;;;;;24.23;3.83;;;13.10;28.80;;;;;;5068647;28;20557;-71
2022/07/11 02:12:48;;;;;;;24.90;3.80;;;13.00;29.20;;;;;;5068999;28;20465;-71
2022/07/11 02:15:14;;;;;;;26.37;4.20;;;13.00;29.10;;;;;;5067783;28;20503;-70
2022/07/11 02:17:41;;;;;;;26.37;4.00;;;12.90;29.10;;;;;;5067512;28;20504;-72
2022/07/11 02:20:09;;;;;;;26.30;3.50;;;12.90;29.40;;;;;;5064566;28;20458;-70
2022/07/11 02:22:36;;;;;;;26.33;3.50;;;12.90;29.50;;;;;;5066702;28;20468;-71
2022/07/11 02:25:03;;;;;;;26.20;4.10;;;12.80;29.40;;;;;;5068066;28;21045;-70
2022/07/11 02:27:30;;;;;;;26.90;3.37;;;12.80;29.30;;;;;;5064790;28;20465;-70
2022/07/11 02:29:58;;;;;;;26.47;4.20;;;12.80;29.50;;;;;;5079374;28;20484;-69
2022/07/11 02:32:25;;;;;;;24.10;3.80;;;12.80;30.00;;;;;;5068326;28;20477;-70
2022/07/11 02:38:14;;;;;;;26.30;4.10;;;12.80;30.80;;;;;;5063002;28;20428;-72
2022/07/11 02:40:41;;;;;;;27.73;3.60;;;12.80;30.00;;;;;;5065368;28;20461;-71
2022/07/11 02:43:08;;;;;;;25.30;4.27;;;12.80;29.90;;;;;;5068493;28;20940;-71
2022/07/11 02:45:36;;;;;;;26.03;4.20;;;12.70;30.00;;;;;;5068060;28;20544;-71
2022/07/11 02:48:03;;;;;;;26.13;3.83;;;12.70;30.20;;;;;;5065736;28;20748;-70
2022/07/11 02:50:31;;;;;;;30.80;5.20;;;12.70;30.30;;;;;;5064697;28;21019;-71
2022/07/11 02:52:57;;;;;;;27.10;3.43;;;12.70;30.00;;;;;;5061600;28;20458;-72
2022/07/11 02:55:24;;;;;;;28.50;4.40;;;12.70;30.50;;;;;;5058716;28;20473;-71
2022/07/11 02:57:51;;;;;;;28.43;4.50;;;12.70;30.40;;;;;;5066515;28;20461;-71
2022/07/11 03:00:19;;;;;;;27.30;3.90;;;12.70;30.40;;;;;;5067726;28;20457;-71
2022/07/11 03:02:47;;;;;;;26.80;3.80;;;12.70;30.10;;;;;;5067655;28;20967;-71
2022/07/11 03:05:14;;;;;;;28.40;4.40;;;12.60;30.00;;;;;;5068029;28;20469;-71
2022/07/11 03:07:41;;;;;;;27.93;4.47;;;12.70;30.00;;;;;;5058321;28;20469;-71
2022/07/11 03:10:08;;;;;;;28.50;3.70;;;12.60;30.00;;;;;;5070430;28;20488;-71
2022/07/11 03:12:35;;;;;;;29.47;4.93;;;12.60;29.90;;;;;;5060133;28;20484;-70
2022/07/11 03:15:02;;;;;;;28.40;4.10;;;12.60;29.90;;;;;;5066789;28;20920;-69
2022/07/11 03:17:29;;;;;;;30.17;4.03;;;12.60;29.80;;;;;;5065523;28;20840;-70
2022/07/11 03:19:57;;;;;;;29.63;4.70;;;12.50;30.00;;;;;;5061975;28;20739;-70
2022/07/11 03:22:24;;;;;;;27.97;4.30;;;12.50;30.00;;;;;;5066791;28;20934;-70
2022/07/11 03:24:51;;;;;;;33.73;6.20;;;12.50;30.10;;;;;;5053356;28;20477;-70
2022/07/11 03:27:18;;;;;;;29.03;4.70;;;12.50;30.10;;;;;;5065706;28;20461;-70
2022/07/11 03:29:45;;;;;;;27.40;4.30;;;12.50;30.10;;;;;;5065352;28;20464;-70
2022/07/11 03:32:12;;;;;;;27.00;3.83;;;12.50;30.30;;;;;;5066268;28;20464;-70
2022/07/11 03:34:39;;;;;;;30.20;4.23;;;12.40;30.40;;;;;;5067268;28;20489;-72
2022/07/11 03:37:09;;;;;;;27.97;4.67;;;12.40;30.80;;;;;;5065800;28;20869;-70
2022/07/11 03:39:36;;;;;;;27.70;4.30;;;12.40;31.00;;;;;;5065534;28;20457;-71
2022/07/11 03:42:03;;;;;;;25.90;4.20;;;12.40;30.80;;;;;;5064081;28;20465;-71
2022/07/11 03:44:29;;;;;;;25.80;4.00;;;12.40;31.00;;;;;;5063015;28;20476;-61
2022/07/11 03:46:56;;;;;;;24.87;4.80;;;12.30;31.00;;;;;;5078001;28;20816;-62
2022/07/11 03:49:23;;;;;;;26.10;4.43;;;12.30;31.40;;;;;;5066051;28;20553;-62
2022/07/11 03:51:52;;;;;;;26.10;4.50;;;12.30;31.80;;;;;;5056929;28;20500;-61
2022/07/11 03:54:20;;;;;;;28.10;4.37;;;12.30;31.70;;;;;;5064374;28;20481;-63
2022/07/11 03:56:47;;;;;;;28.93;4.57;;;12.30;31.60;;;;;;5066155;28;20484;-62
2022/07/11 03:59:14;;;;;;;28.23;4.60;;;12.30;31.90;;;;;;5066119;28;20500;-62
2022/07/11 04:01:41;;;;;;;27.97;4.43;;;12.30;31.60;;;;;;5061086;28;20473;-61
2022/07/11 04:04:08;;;;;;;26.83;4.60;;;12.30;31.90;;;;;;5063087;28;20851;-71
2022/07/11 04:06:35;;;;;;;27.27;4.33;;;12.40;31.90;;;;;;5027500;28;1050371;-70
2022/07/11 04:09:02;;;;;;;29.20;4.27;;;12.40;31.80;;;;;;5060913;28;20203;-70
2022/07/11 04:11:30;;;;;;;29.10;5.10;;;12.40;31.60;;;;;;5062869;28;20481;-71
2022/07/11 04:13:57;;;;;;;28.30;5.10;;;12.40;31.80;;;;;;5062724;28;20552;-72
2022/07/11 04:16:24;;;;;;;28.20;4.40;;;12.40;31.60;;;;;;5064699;28;20457;-71
2022/07/11 04:18:51;;;;;;;27.27;4.80;;;12.40;31.80;;;;;;5071161;28;20497;-71
2022/07/11 04:21:18;;;;;;;26.70;4.53;;;12.50;31.80;;;;;;5070123;28;20467;-72
2022/07/11 04:23:45;;;;;;;27.70;4.60;;;12.60;31.70;;;;;;5070069;28;20481;-70
2022/07/11 04:26:11;;;;;;;30.03;5.00;;;12.60;31.90;;;;;;5070695;28;20472;-71
2022/07/11 04:28:39;;;;;;;26.57;4.30;;;12.70;31.90;;;;;;5065715;28;20947;-72
2022/07/11 04:31:06;;;;;;;25.97;4.90;;;12.80;31.90;;;;;;5070166;28;20475;-71
2022/07/11 04:33:33;;;;;;;27.80;4.40;;;12.90;32.20;;;;;;5069731;28;20506;-71
2022/07/11 04:36:01;;;;;;;27.90;4.80;;;13.00;32.30;;;;;;5068212;28;20463;-71
2022/07/11 04:38:28;;;;;;;28.63;4.20;;;13.20;32.40;;;;;;5062657;28;20475;-71
2022/07/11 04:40:55;;;;;;;26.80;4.40;;;13.30;32.30;;;;;;5067757;28;20458;-70
2022/07/11 04:43:22;;;;;;;28.40;4.50;;;13.30;32.30;;;;;;5067634;28;20457;-72
2022/07/11 04:45:50;;;;;;;30.70;4.30;;;13.40;32.10;;;;;;5070705;28;20845;-71
2022/07/11 04:48:17;;;;;;;31.13;4.87;;;13.50;32.10;;;;;;5070347;28;20665;-71
2022/07/11 04:50:44;;;;;;;28.20;4.10;;;13.60;32.10;;;;;;5070782;28;20488;-71
2022/07/11 04:53:11;;;;;;;32.30;5.57;;;13.70;32.10;;;;;;5069622;28;20468;-71
2022/07/11 04:55:40;;;;;;;28.37;4.20;;;13.80;32.00;;;;;;5072069;28;20461;-71
2022/07/11 04:58:07;;;;;;;29.07;3.93;;;13.90;31.90;;;;;;5060329;28;20556;-71
2022/07/11 05:00:34;;;;;;;34.50;4.33;;;14.00;31.90;;;;;;5076834;28;20465;-70
2022/07/11 05:03:02;;;;;;;29.73;4.60;;;14.20;31.60;;;;;;5062820;28;20983;-70
2022/07/11 05:05:29;;;;;;;28.67;3.97;;;14.30;31.40;;;;;;5070208;28;20488;-70
2022/07/11 05:07:56;;;;;;;31.60;4.40;;;14.50;30.90;;;;;;5070413;28;20469;-70
2022/07/11 05:10:23;;;;;;;31.37;4.70;;;14.70;30.40;;;;;;5060663;28;20490;-70
2022/07/11 05:12:50;;;;;;;32.50;4.10;;;14.80;29.90;;;;;;5065116;28;20854;-70
2022/07/11 05:15:16;;;;;;;32.77;4.37;;;15.00;29.40;;;;;;5068081;28;20480;-70
2022/07/11 05:17:43;;;;;;;30.40;3.70;;;15.20;28.80;;;;;;5074732;28;20870;-70
2022/07/11 05:20:12;;;;;;;29.37;3.67;;;15.40;28.00;;;;;;5066750;28;20473;-70
2022/07/11 05:22:38;;;;;;;31.97;4.23;;;15.70;27.50;;;;;;5068745;28;20467;-70
2022/07/11 05:25:06;;;;;;;33.10;4.23;;;15.90;27.10;;;;;;5068201;28;20489;-70
2022/07/11 05:27:33;;;;;;;30.30;4.10;;;16.20;26.40;;;;;;5070437;28;20467;-70
2022/07/11 05:29:59;;;;;;;29.93;3.70;;;16.60;25.50;;;;;;5069817;28;20464;-70
2022/07/11 05:32:26;;;;;;;30.40;4.90;;;16.70;24.50;;;;;;5062915;28;20469;-70
2022/07/11 05:34:53;;;;;;;29.43;4.10;;;16.90;24.20;;;;;;5067913;28;20485;-70
2022/07/11 05:37:21;;;;;;;31.33;3.70;;;17.20;24.20;;;;;;5069425;28;20471;-70
2022/07/11 05:39:48;;;;;;;31.27;4.30;;;17.60;23.30;;;;;;5069160;28;20494;-70
2022/07/11 05:42:15;;;;;;;33.50;3.40;;;17.90;22.50;;;;;;5055664;28;20461;-70
2022/07/11 05:44:42;;;;;;;29.10;3.03;;;18.30;21.70;;;;;;5069189;28;20534;-71
2022/07/11 05:50:30;;;;;;;32.10;3.70;;;18.70;20.50;;;;;;5068833;28;20513;-70
2022/07/11 05:52:58;;;;;;;32.13;3.60;;;19.10;19.70;;;;;;5062035;28;20473;-70
2022/07/11 05:55:25;;;;;;;30.50;3.63;;;19.60;18.70;;;;;;5063839;28;20477;-70
2022/07/11 05:57:52;;;;;;;29.50;3.30;;;20.10;17.50;;;;;;5066652;28;20457;-70
2022/07/11 06:00:19;;;;;;;30.13;3.20;;;20.50;16.70;;;;;;5058607;28;20472;-71
2022/07/11 06:02:47;;;;;;;29.93;3.10;;;20.80;15.80;;;;;;5063286;28;21214;-70
2022/07/11 06:05:14;;;;;;;31.50;5.13;;;21.10;15.90;;;;;;5064702;28;21078;-70
2022/07/11 06:10:27;;;;;;;30.83;3.60;;;21.70;14.10;;;;;;5061918;28;20456;-71
2022/07/11 06:12:55;;;;;;;29.40;3.43;;;22.00;13.30;;;;;;5062371;28;20989;-71
2022/07/11 06:15:21;;;;;;;35.47;3.90;;;22.40;11.70;;;;;;5069099;28;20575;-70
2022/07/11 06:17:48;;;;;;;29.40;3.80;;;22.80;11.50;;;;;;5063466;28;20463;-70
2022/07/11 06:20:15;;;;;;;33.00;3.90;;;23.10;10.80;;;;;;5062634;28;20468;-71
2022/07/11 06:22:42;;;;;;;30.77;3.00;;;23.00;10.30;;;;;;5068914;28;20461;-71
2022/07/11 06:25:09;;;;;;;31.30;3.63;;;22.90;10.30;;;;;;5062741;28;20486;-71
2022/07/11 06:27:37;;;;;;;28.90;3.87;;;22.80;10.70;;;;;;5059468;28;20461;-71
2022/07/11 06:30:05;;;;;;;28.47;2.90;;;22.80;10.80;;;;;;5064240;28;20690;-71
2022/07/11 06:32:32;;;;;;;30.33;3.40;;;22.80;11.00;;;;;;5067774;28;21009;-71
2022/07/11 06:34:58;;;;;;;28.57;3.20;;;22.90;11.00;;;;;;5066073;28;20523;-71
2022/07/11 06:37:25;;;;;;;29.07;3.40;;;23.00;10.60;;;;;;5058179;28;20461;-72
2022/07/11 06:39:52;;;;;;;31.60;3.50;;;23.30;10.70;;;;;;5061089;28;20968;-73
2022/07/11 06:42:19;;;;;;;27.83;2.57;;;23.40;10.20;;;;;;5066320;28;20971;-72
2022/07/11 06:44:47;;;;;;;29.27;3.30;;;23.50;10.40;;;;;;5068499;28;20994;-72
2022/07/11 06:47:14;;;;;;;28.47;2.93;;;23.40;10.30;;;;;;5059487;28;20980;-72
2022/07/11 06:49:40;;;;;;;28.13;2.90;;;23.40;10.30;;;;;;5063555;28;20487;-72
2022/07/11 06:52:07;;;;;;;29.00;2.97;;;23.30;10.50;;;;;;5060665;28;20585;-73
2022/07/11 06:54:34;;;;;;;29.53;2.80;;;23.20;11.30;;;;;;5069701;28;20495;-73
2022/07/11 06:57:01;;;;;;;27.57;2.20;;;23.10;10.80;;;;;;5067679;28;20464;-73
2022/07/11 06:59:27;;;;;;;28.30;2.77;;;23.10;10.80;;;;;;5064658;28;20464;-72
2022/07/11 07:01:57;;;;;;;28.00;2.70;;;23.00;10.60;;;;;;5074200;28;20472;-72
2022/07/11 07:04:24;;;;;;;28.87;2.50;;;22.90;10.80;;;;;;5071916;28;20497;-72
2022/07/11 07:06:51;;;;;;;29.90;3.00;;;22.90;10.60;;;;;;5070320;28;20476;-71
2022/07/11 07:09:17;;;;;;;27.87;2.30;;;22.80;10.40;;;;;;5075843;28;21044;-73
2022/07/11 07:11:44;;;;;;;28.50;2.87;;;22.80;10.10;;;;;;5067174;28;20489;-72
2022/07/11 07:14:11;;;;;;;28.07;3.00;;;22.80;10.60;;;;;;5068112;28;20480;-72
2022/07/11 07:16:39;;;;;;;29.33;3.20;;;22.80;10.70;;;;;;5071815;28;20462;-72
2022/07/11 07:19:07;;;;;;;28.13;2.90;;;22.80;10.20;;;;;;5065733;28;20461;-72
2022/07/11 07:21:34;;;;;;;29.13;3.07;;;22.80;10.50;;;;;;5064796;28;20457;-72
2022/07/11 07:24:01;;;;;;;28.60;3.43;;;22.80;10.70;;;;;;5055176;28;21027;-72
2022/07/11 07:26:27;;;;;;;29.30;3.23;;;22.80;11.10;;;;;;5058663;28;20597;-72
2022/07/11 07:28:54;;;;;;;27.33;3.20;;;22.90;11.00;;;;;;5064593;28;20454;-72
2022/07/11 07:31:21;;;;;;;30.20;3.70;;;23.00;11.10;;;;;;5075762;28;20472;-72
2022/07/11 07:33:51;;;;;;;28.40;3.70;;;23.10;11.70;;;;;;5068587;28;20478;-72
2022/07/11 07:36:19;;;;;;;28.63;3.80;;;23.20;10.90;;;;;;5061279;28;20462;-72
2022/07/11 07:38:47;;;;;;;30.40;3.90;;;23.30;10.70;;;;;;5062721;28;20619;-72
2022/07/11 07:41:14;;;;;;;28.60;3.33;;;23.30;10.60;;;;;;5065446;28;20828;-71
2022/07/11 07:43:42;;;;;;;28.70;3.50;;;23.50;10.80;;;;;;5067744;28;20477;-72
2022/07/11 07:46:10;;;;;;;32.00;3.60;;;23.70;10.70;;;;;;5067301;28;20464;-71
2022/07/11 07:48:37;;;;;;;29.57;3.60;;;24.00;9.90;;;;;;5065268;28;20555;-71
2022/07/11 07:51:04;;;;;;;28.70;3.60;;;24.10;9.40;;;;;;5065449;28;20518;-72
2022/07/11 07:53:32;;;;;;;29.80;3.43;;;24.40;9.50;;;;;;5069323;28;20461;-71
2022/07/11 07:55:59;;;;;;;28.10;3.90;;;24.60;9.00;;;;;;5070622;28;20461;-71
2022/07/11 07:58:26;;;;;;;30.93;4.20;;;24.70;8.50;;;;;;5069530;28;20821;-72
2022/07/11 08:03:37;;;;;;;30.40;3.50;;;25.10;7.70;;;;;;5070027;28;20845;-71
2022/07/11 08:06:04;;;;;;;27.90;3.13;;;25.60;7.40;;;;;;5070072;28;20461;-72
2022/07/11 08:08:32;;;;;;;27.77;3.30;;;26.30;6.10;;;;;;5068647;28;21031;-72
2022/07/11 08:11:01;;;;;;;27.33;3.17;;;26.70;4.70;;;;;;5067051;28;20460;-72
2022/07/11 08:13:28;;;;;;;30.60;3.30;;;27.40;4.50;;;;;;5069047;28;20483;-72
2022/07/11 08:15:55;;;;;;;27.47;2.80;;;28.00;3.20;;;;;;5070684;28;20461;-71
2022/07/11 08:18:22;;;;;;;27.13;2.60;;;28.40;2.00;;;;;;5071581;28;20460;-72
2022/07/11 08:20:49;;;;;;;28.20;3.27;;;28.70;1.70;;;;;;5069312;28;20465;-71
2022/07/11 08:23:17;;;;;;;27.40;2.90;;;29.30;1.00;;;;;;5065958;28;20464;-72
2022/07/11 08:25:45;;;;;;;25.60;2.10;;;30.10;1.10;;;;;;5071028;28;20484;-72
2022/07/11 08:28:12;;;;;;;27.20;2.40;;;30.90;1.00;;;;;;5070786;28;20491;-72
2022/07/11 08:30:39;;;;;;;26.00;2.67;;;32.10;1.00;;;;;;5080805;28;20466;-72
2022/07/11 08:33:05;;;;;;;24.87;1.87;;;33.50;1.00;;;;;;5069651;28;20484;-72
2022/07/11 08:35:32;;;;;;;24.87;2.00;;;34.50;1.00;;;;;;5070766;28;20485;-72
2022/07/11 08:37:59;;;;;;;26.40;2.20;;;34.90;1.00;;;;;;5074808;28;20968;-72
2022/07/11 08:40:28;;;;;;;25.30;2.20;;;35.40;1.00;;;;;;5073357;28;20464;-73
2022/07/11 08:42:58;;;;;;;24.57;2.10;;;35.40;1.00;;;;;;5068583;28;20464;-72
2022/07/11 08:45:30;;;;;;;28.40;2.40;;;35.50;1.00;;;;;;5056984;28;20549;-72
2022/07/11 08:47:58;;;;;;;25.70;2.00;;;35.70;1.00;;;;;;5056773;28;21042;-72
2022/07/11 08:50:27;;;;;;;23.73;1.80;;;35.90;1.00;;;;;;5071063;28;20896;-71
2022/07/11 08:52:55;;;;;;;23.83;1.87;;;36.30;1.00;;;;;;5063671;28;20484;-73
2022/07/11 08:55:22;;;;;;;26.83;2.53;;;36.20;1.00;;;;;;5077114;28;21013;-72
2022/07/11 08:57:49;;;;;;;24.70;2.37;;;35.50;1.00;;;;;;5071101;28;20464;-72
2022/07/11 09:00:19;;;;;;;25.33;2.37;;;34.40;1.00;;;;;;5069651;28;20485;-72
2022/07/11 09:02:47;;;;;;;25.10;2.43;;;33.40;1.00;;;;;;5068123;28;20555;-73
2022/07/11 09:05:13;;;;;;;25.43;2.10;;;32.70;1.00;;;;;;5068122;28;20487;-72
2022/07/11 09:07:46;;;;;;;25.80;2.17;;;32.40;1.00;;;;;;5061992;28;20836;-72
2022/07/11 09:10:13;;;;;;;25.00;2.23;;;31.90;1.00;;;;;;5080557;28;20801;-72
2022/07/11 09:13:00;;;;;;;25.40;2.20;;;31.40;1.00;;;;;;5070278;28;20543;-74
2022/07/11 09:15:39;;;;;;;25.20;1.90;;;30.70;1.00;;;;;;5059241;28;21004;-74
2022/07/11 09:18:07;;;;;;;25.67;2.00;;;30.00;1.00;;;;;;5070895;28;20461;-75
2022/07/11 09:26:22;;;;;;;25.50;1.90;;;28.70;1.00;;;;;;5069836;28;20448;-72
2022/07/11 09:29:00;;;;;;;26.60;1.80;;;28.60;1.00;;;;;;5070621;28;20485;-72
2022/07/11 09:31:30;;;;;;;25.70;1.87;;;28.30;1.00;;;;;;5069822;28;20465;-72
2022/07/11 09:34:02;;;;;;;26.17;2.30;;;28.10;1.00;;;;;;5068156;28;20485;-72
2022/07/11 09:36:51;;;;;;;26.07;1.80;;;28.00;1.00;;;;;;5056728;28;21028;-72
2022/07/11 09:39:20;;;;;;;26.80;2.40;;;27.70;1.00;;;;;;5052983;28;20467;-75
2022/07/11 09:41:48;;;;;;;25.90;1.80;;;27.30;1.00;;;;;;5060989;28;20457;-72
2022/07/11 09:44:17;;;;;;;27.70;2.53;;;27.00;1.10;;;;;;5072276;28;20555;-72
2022/07/11 09:46:47;;;;;;;27.10;1.93;;;26.90;1.40;;;;;;5076315;28;20469;-72
2022/07/11 09:49:15;;;;;;;28.93;2.50;;;26.70;1.20;;;;;;5077657;28;20464;-72
2022/07/11 09:51:42;;;;;;;26.60;2.13;;;26.50;1.80;;;;;;5071912;28;21001;-72
2022/07/11 09:54:10;;;;;;;26.53;2.50;;;26.30;1.80;;;;;;5069619;28;20492;-72
2022/07/11 09:56:43;;;;;;;27.80;2.63;;;26.10;2.00;;;;;;5068855;28;20457;-72
2022/07/11 09:59:12;;;;;;;27.27;2.60;;;25.90;2.40;;;;;;5069466;28;20457;-72
2022/07/11 10:01:40;;;;;;;26.80;2.60;;;25.90;3.20;;;;;;5068928;28;20470;-71
2022/07/11 10:04:09;;;;;;;27.30;2.50;;;26.00;4.00;;;;;;5068645;28;21098;-72
2022/07/11 10:06:37;;;;;;;26.37;2.27;;;26.30;3.50;;;;;;5060886;28;20476;-72
2022/07/11 10:09:05;;;;;;;26.10;2.10;;;26.90;2.90;;;;;;5070385;28;20457;-72
2022/07/11 10:11:32;;;;;;;26.93;2.23;;;27.50;2.10;;;;;;5069215;28;20495;-72
2022/07/11 10:14:00;;;;;;;26.07;2.23;;;28.10;2.20;;;;;;5069181;28;20989;-72
2022/07/11 10:16:39;;;;;;;26.50;2.17;;;28.80;1.00;;;;;;5067604;28;20465;-72
2022/07/11 10:19:26;;;;;;;28.17;1.90;;;29.10;1.00;;;;;;5067737;28;20445;-72
2022/07/11 10:22:02;;;;;;;26.33;2.20;;;29.20;1.00;;;;;;5063599;28;20468;-72
2022/07/11 10:24:44;;;;;;;26.80;2.50;;;29.10;1.00;;;;;;5075896;28;20472;-71
2022/07/11 10:27:21;;;;;;;26.20;2.30;;;28.90;1.00;;;;;;5069160;28;20465;-72
2022/07/11 10:29:51;;;;;;;25.87;2.50;;;28.90;1.00;;;;;;5064748;28;20468;-72
2022/07/11 10:32:19;;;;;;;25.77;2.33;;;28.90;1.00;;;;;;5055723;28;20474;-72
2022/07/11 10:35:05;;;;;;;25.50;2.00;;;28.90;1.00;;;;;;5068411;28;20485;-71
2022/07/11 10:37:47;;;;;;;26.57;2.37;;;28.90;1.00;;;;;;5065310;28;20498;-72
2022/07/11 10:40:13;;;;;;;26.83;2.10;;;28.90;1.00;;;;;;5068504;28;20464;-72
2022/07/11 10:42:42;;;;;;;27.47;2.03;;;28.80;1.00;;;;;;5076735;28;20452;-72
2022/07/11 10:45:10;;;;;;;27.70;2.30;;;28.60;1.00;;;;;;5070707;28;20481;-72
2022/07/11 10:47:42;;;;;;;26.30;2.50;;;28.50;1.00;;;;;;5056510;28;20462;-72
2022/07/11 10:50:23;;;;;;;25.73;2.00;;;28.30;1.00;;;;;;5065324;28;20469;-72
2022/07/11 10:52:52;;;;;;;25.53;2.03;;;28.40;1.00;;;;;;5071515;28;21025;-73
2022/07/11 10:55:33;;;;;;;27.53;2.23;;;28.50;1.00;;;;;;5071845;28;20855;-72
2022/07/11 10:58:07;;;;;;;27.80;2.23;;;28.60;1.00;;;;;;5080231;28;20460;-72
2022/07/11 11:00:34;;;;;;;26.40;2.40;;;28.30;1.00;;;;;;5066912;28;20518;-72
2022/07/11 11:03:03;;;;;;;25.67;2.17;;;28.00;1.00;;;;;;5067555;28;20461;-72
2022/07/11 11:05:49;;;;;;;26.40;2.40;;;27.90;1.20;;;;;;5068702;28;20485;-72
2022/07/11 11:08:42;;;;;;;26.07;2.10;;;27.80;1.20;;;;;;5069790;28;20476;-73
2022/07/11 11:11:40;;;;;;;26.60;2.17;;;27.90;1.70;;;;;;5076813;28;20521;-73
2022/07/11 11:14:26;;;;;;;26.73;2.10;;;28.20;2.00;;;;;;5085457;28;20550;-72
2022/07/11 11:16:53;;;;;;;26.10;2.27;;;28.50;1.00;;;;;;5069141;28;20480;-72
2022/07/11 11:19:51;;;;;;;25.90;1.93;;;28.50;1.10;;;;;;5069224;28;20460;-72
2022/07/11 11:22:19;;;;;;;26.20;2.10;;;28.50;1.00;;;;;;5061255;28;21064;-73
2022/07/11 11:24:48;;;;;;;26.03;2.10;;;28.30;1.00;;;;;;5082307;28;20473;-73
2022/07/11 11:27:21;;;;;;;25.63;2.20;;;28.20;1.10;;;;;;5058284;28;20450;-73
2022/07/11 11:29:52;;;;;;;31.63;2.73;;;28.10;1.10;;;;;;5055383;28;21082;-73
2022/07/11 11:32:20;;;;;;;25.70;2.10;;;28.00;1.30;;;;;;5077306;28;21073;-72
2022/07/11 11:34:47;;;;;;;26.17;1.80;;;27.90;1.90;;;;;;5069136;28;20484;-72
2022/07/11 11:37:17;;;;;;;25.30;2.10;;;28.00;2.20;;;;;;5065271;28;20470;-72
2022/07/11 11:39:44;;;;;;;25.73;2.40;;;28.10;2.20;;;;;;5074410;28;20461;-71
2022/07/11 11:42:16;;;;;;;25.27;2.03;;;28.20;1.80;;;;;;5066957;28;20457;-71
2022/07/11 11:44:56;;;;;;;25.20;2.10;;;28.40;1.90;;;;;;5067212;28;20480;-72
2022/07/11 11:47:24;;;;;;;25.87;2.30;;;28.60;2.10;;;;;;5075477;28;20457;-72
2022/07/11 11:49:52;;;;;;;25.43;2.40;;;28.90;1.10;;;;;;5067625;28;20465;-72
2022/07/11 11:52:20;;;;;;;25.10;1.90;;;28.90;1.00;;;;;;5065787;28;20461;-72
2022/07/11 11:54:57;;;;;;;25.70;2.20;;;28.90;1.00;;;;;;5064609;28;20634;-73
2022/07/11 11:57:25;;;;;;;25.77;2.33;;;28.80;1.00;;;;;;5066207;28;20487;-72
2022/07/11 11:59:53;;;;;;;26.30;2.13;;;28.80;1.00;;;;;;5064074;28;20453;-73
2022/07/11 12:02:25;;;;;;;25.90;2.30;;;28.70;1.00;;;;;;5058704;28;20492;-72
2022/07/11 12:04:52;;;;;;;25.43;2.10;;;28.70;1.00;;;;;;5058836;28;20491;-72
2022/07/11 12:07:27;;;;;;;25.70;2.40;;;28.70;1.00;;;;;;5059417;28;21472;-73
2022/07/11 12:09:56;;;;;;;26.77;2.40;;;28.70;1.00;;;;;;5058100;28;20460;-73
2022/07/11 12:15:26;;;;;;;26.03;2.27;;;28.40;1.00;;;;;;5053432;28;20484;-73
2022/07/11 12:17:57;;;;;;;25.97;2.10;;;28.40;1.10;;;;;;5062345;28;20457;-67
2022/07/11 12:20:44;;;;;;;25.40;2.20;;;28.50;1.40;;;;;;5062592;28;20791;-67
2022/07/11 12:23:16;;;;;;;25.27;2.33;;;28.60;1.70;;;;;;5056510;28;20449;-66
2022/07/11 12:25:43;;;;;;;25.50;2.27;;;28.60;1.50;;;;;;5061961;28;20461;-66
2022/07/11 12:28:10;;;;;;;25.37;2.10;;;28.60;1.40;;;;;;5063619;28;20552;-66
2022/07/11 12:30:38;;;;;;;25.77;2.30;;;28.50;1.00;;;;;;5073021;28;20543;-67
2022/07/11 12:33:10;;;;;;;25.70;2.40;;;28.30;1.00;;;;;;5062999;28;20489;-67
2022/07/11 12:35:37;;;;;;;25.93;2.73;;;28.10;1.10;;;;;;5060467;28;20489;-67
2022/07/11 12:38:05;;;;;;;26.37;2.10;;;27.90;1.40;;;;;;5059372;28;20487;-66
2022/07/11 12:40:32;;;;;;;25.77;2.50;;;27.90;1.70;;;;;;5063426;28;20484;-66
2022/07/11 12:42:59;;;;;;;25.93;2.23;;;27.90;1.80;;;;;;5061017;28;20456;-67
2022/07/11 12:45:24;;;;;;;27.00;2.33;;;28.00;2.80;;;;;;5062769;28;20473;-66
2022/07/11 12:47:53;;;;;;;26.53;2.20;;;28.20;3.20;;;;;;5065670;28;20977;-67
2022/07/11 12:50:22;;;;;;;25.93;2.30;;;28.30;2.30;;;;;;5061591;28;20601;-67
2022/07/11 12:52:54;;;;;;;26.20;2.37;;;28.30;2.10;;;;;;5066365;28;20514;-66
2022/07/11 12:55:26;;;;;;;27.30;2.57;;;28.30;2.50;;;;;;5063297;28;20534;-66
2022/07/11 12:58:05;;;;;;;25.47;2.20;;;28.30;3.20;;;;;;5061980;28;20888;-67
2022/07/11 13:00:33;;;;;;;26.00;2.50;;;28.20;2.50;;;;;;5061583;28;20456;-66
2022/07/11 13:03:01;;;;;;;26.03;2.40;;;27.90;2.20;;;;;;5060573;28;20493;-67
2022/07/11 13:05:28;;;;;;;26.07;2.60;;;27.60;2.20;;;;;;5062851;28;20499;-67
2022/07/11 13:10:51;;;;;;;26.03;2.50;;;27.30;2.80;;;;;;5063277;28;20441;-67
2022/07/11 13:13:18;;;;;;;26.30;2.50;;;27.20;3.50;;;;;;5064719;28;20492;-66
2022/07/11 13:15:46;;;;;;;26.57;3.30;;;27.20;3.60;;;;;;5063957;28;20544;-67